Latest Coastal Weather Observations for Ngayawili (Elcho Island)

IDD60701

Issued at 11:31 am CST Wednesday 4 May 2016 (issued every 10 minutes, with the page automatically refreshed every 10 minutes)

About coastal observations | Map of coastal stations | Coastal observations for NT | Marine services | Other Formats
Station Details ID: 014517 Name: NGAYAWILI Lat: -12.00 Lon: 135.57 Height: 8.1 m
Data from the previous 72 hours. | See also: Recent months at Ngayawili (Elcho Island)
Date/Time
CST
Temp

°C
Wind Pressure Rain
since 9am
mm
Weather Cloud Vis
km
Sea
Height
m
Swell
Dir
 
Speed
knots
Gust
knots
hPa Trend Height
m
Period
s
Dir
04/11:30am 31.1 E 7 11 1012.0 - - - - - - - - -
04/11:00am 31.5 E 9 14 1012.3 - - - - - - - - -
04/10:30am 30.7 E 8 14 1012.5 - 0.0 - - - - - - -
04/10:00am 30.0 E 7 11 1012.6 - 0.0 - - - - - - -
04/09:30am 29.7 E 5 11 1012.7 - 0.0 - - - - - - -
04/09:00am 28.9 E 7 11 1012.6 - 19.6 - - - - - - -
04/08:30am 28.3 ENE 5 9 1012.4 - 19.6 - - - - - - -
04/08:00am 27.7 ENE 4 6 1012.4 - 19.6 - - - - - - -
04/07:30am 27.0 CALM 0 0 1012.0 - 19.6 - - - - - - -
04/07:00am 26.5 ESE 4 4 1011.6 - 19.6 - - - - - - -
04/06:30am 26.5 E 3 4 1011.4 - 19.6 - - - - - - -
04/06:00am 26.2 E 2 5 1011.0 - 19.6 - - - - - - -
04/05:30am 26.2 SE 3 4 1010.8 - 19.6 - - - - - - -
04/05:00am 26.3 SE 4 5 1010.5 - 19.6 - - - - - - -
04/04:30am 26.5 SE 4 5 1010.6 - 19.6 - - - - - - -
04/04:00am 26.6 ESE 3 4 1010.7 - 19.6 - - - - - - -
04/03:30am 26.6 SE 4 5 1010.6 - 19.6 - - - - - - -
04/03:00am 26.8 ESE 3 5 1010.6 - 19.6 - - - - - - -
04/02:30am 26.7 ESE 4 5 1010.8 - 19.6 - - - - - - -
04/02:00am 26.8 E 3 6 1010.8 - 19.6 - - - - - - -
04/01:30am 26.6 ESE 4 5 1011.1 - 19.6 - - - - - - -
04/01:00am 26.5 SE 4 5 1011.3 - 19.6 - - - - - - -
04/12:30am 26.7 SE 4 5 1011.7 - 19.6 - - - - - - -
04/12:00am 26.8 ESE 5 7 1011.9 - 19.6 - - - - - - -
 
Date/Time
CST
Temp

°C
Wind Pressure Rain
since 9am
mm
Weather Cloud Vis
km
Sea
Height
m
Swell
Dir
 
Speed
knots
Gust
knots
hPa Trend Height
m
Period
s
Dir
03/11:30pm 26.7 ESE 5 6 1012.2 - 19.6 - - - - - - -
03/11:00pm 26.6 ESE 5 6 1012.3 - 19.6 - - - - - - -
03/10:30pm 26.5 ESE 5 6 1012.3 - 19.6 - - - - - - -
03/10:00pm 26.3 SE 4 5 1012.5 - 19.6 - - - - - - -
03/09:30pm 26.4 SE 3 4 1012.8 - 19.6 - - - - - - -
03/09:00pm 26.5 SE 4 5 1012.7 - 19.6 - - - - - - -
03/08:30pm 26.8 SE 4 5 1012.4 - 19.6 - - - - - - -
03/08:00pm 27.1 SE 4 5 1011.9 - 19.6 - - - - - - -
03/07:30pm 27.2 ESE 4 6 1011.4 - 19.6 - - - - - - -
03/07:00pm 27.3 E 4 6 1011.0 - 19.6 - - - - - - -
03/06:30pm 27.3 ESE 4 5 1010.7 - 19.6 - - - - - - -
03/06:00pm 27.6 ENE 5 6 1010.3 - 19.6 - - - - - - -
03/05:30pm 27.6 E 5 8 1010.2 - 19.6 - - - - - - -
03/05:00pm 28.1 ENE 7 11 1009.5 - 19.6 - - - - - - -
03/04:30pm 29.0 NNE 11 15 1009.3 - 19.6 - - - - - - -
03/04:00pm 30.6 NNE 9 14 1009.1 - 19.4 - - - - - - -
03/03:30pm 31.4 NNE 10 14 1009.1 - 19.4 - - - - - - -
03/03:00pm 31.6 N 10 13 1009.2 - 19.4 - - - - - - -
03/02:30pm 31.6 WNW 5 7 1009.5 - 19.4 - - - - - - -
03/02:00pm 30.1 WNW 6 8 1010.3 - 19.4 - - - - - - -
03/01:30pm 31.1 WNW 6 7 1010.7 - 19.4 - - - - - - -
03/01:00pm 29.9 WNW 6 7 1011.1 - 19.4 - - - - - - -
03/12:30pm 29.5 WNW 4 5 1011.5 - 19.4 - - - - - - -
03/12:00pm 29.5 S 4 6 1011.9 - 19.4 - - - - - - -
03/11:30am 28.6 SSE 5 6 1012.3 - 19.4 - - - - - - -
03/11:00am 27.6 ESE 4 5 1012.7 - 19.4 - - - - - - -
03/10:30am 26.0 SE 3 5 1013.1 - 19.4 - - - - - - -
03/10:00am 25.2 W 5 7 1013.4 - 19.4 - - - - - - -
03/09:30am 26.9 N 6 13 1013.4 - 3.2 - - - - - - -
03/09:00am 27.4 NE 3 6 1013.2 - 0.0 - - - - - - -
03/08:30am 26.9 N 2 4 1013.2 - 0.0 - - - - - - -
03/08:00am 27.0 CALM 0 0 1013.0 - 0.0 - - - - - - -
03/07:30am 26.5 CALM 0 0 1012.6 - 0.0 - - - - - - -
03/07:00am 26.2 E 3 4 1012.2 - 0.0 - - - - - - -
03/06:30am 26.0 SE 5 7 1011.5 - 0.0 - - - - - - -
03/06:00am 26.0 SE 4 5 1011.2 - 0.0 - - - - - - -
03/05:30am 26.0 SE 5 6 1011.0 - 0.0 - - - - - - -
03/05:00am 25.7 SE 4 6 1010.9 - 0.0 - - - - - - -
03/04:30am 25.8 SSE 4 5 1010.7 - 0.0 - - - - - - -
03/04:00am 25.9 SE 5 6 1010.5 - 0.0 - - - - - - -
03/03:30am 26.0 SE 4 6 1010.5 - 0.0 - - - - - - -
03/03:00am 25.9 SE 4 5 1010.2 - 0.0 - - - - - - -
03/02:30am 25.9 ESE 4 5 1010.4 - 0.0 - - - - - - -
03/02:00am 25.9 ESE 4 5 1010.6 - 0.0 - - - - - - -
03/01:30am 26.1 SE 5 6 1011.0 - 0.0 - - - - - - -
03/01:00am 26.2 SE 4 5 1011.5 - 0.0 - - - - - - -
03/12:30am 26.5 SE 4 6 1011.8 - 0.0 - - - - - - -
03/12:00am 26.7 SE 5 6 1011.9 - 0.0 - - - - - - -
 
Date/Time
CST
Temp

°C
Wind Pressure Rain
since 9am
mm
Weather Cloud Vis
km
Sea
Height
m
Swell
Dir
 
Speed
knots
Gust
knots
hPa Trend Height
m
Period
s
Dir
02/11:30pm 27.0 SE 5 6 1012.2 - 0.0 - - - - - - -
02/11:00pm 27.3 SSE 7 9 1012.2 - 0.0 - - - - - - -
02/10:30pm 27.1 SE 4 6 1012.3 - 0.0 - - - - - - -
02/10:00pm 27.0 ESE 4 5 1012.3 - 0.0 - - - - - - -
02/09:30pm 27.0 SE 4 5 1012.4 - 0.0 - - - - - - -
02/09:00pm 27.2 ESE 4 5 1012.2 - 0.0 - - - - - - -
02/08:30pm 27.6 ENE 4 5 1012.0 - 0.0 - - - - - - -
02/08:00pm 27.8 ENE 3 5 1012.0 - 0.0 - - - - - - -
02/07:30pm 28.1 E 3 5 1011.7 - 0.0 - - - - - - -
02/07:00pm 28.4 E 4 7 1011.2 - 0.0 - - - - - - -
02/06:30pm 28.4 NE 5 9 1011.0 - 0.0 - - - - - - -
02/06:00pm 28.9 NNE 7 9 1010.7 - 0.0 - - - - - - -
02/05:30pm 29.3 NE 7 10 1010.6 - 0.0 - - - - - - -
02/05:00pm 29.7 NNE 9 12 1009.9 - 0.0 - - - - - - -
02/04:30pm 30.4 NNE 11 16 1010.0 - 0.0 - - - - - - -
02/04:00pm 30.8 NE 11 17 1009.8 - 0.0 - - - - - - -
02/03:30pm 30.5 NNE 11 15 1009.4 - 0.0 - - - - - - -
02/03:00pm 30.5 NE 7 13 1009.5 - 0.0 - - - - - - -
02/02:30pm 29.5 NNE 9 14 1010.0 - 0.0 - - - - - - -
02/02:00pm 30.4 NE 12 19 1009.8 - 0.0 - - - - - - -
02/01:30pm 31.9 NNE 10 13 1010.0 - 0.0 - - - - - - -
02/01:00pm 30.9 ENE 7 10 1010.7 - 0.0 - - - - - - -
02/12:30pm 30.4 ENE 6 11 1011.4 - 0.0 - - - - - - -
02/12:00pm 30.4 ENE 7 11 1011.9 - 0.0 - - - - - - -
02/11:30am 29.8 ENE 6 11 1012.1 - 0.0 - - - - - - -
02/11:00am 29.8 NE 8 11 1012.6 - 0.0 - - - - - - -
02/10:30am 28.8 NE 9 12 1012.9 - 0.0 - - - - - - -
02/10:00am 30.1 ENE 5 11 1012.6 - 0.0 - - - - - - -
02/09:30am 29.7 E 6 9 1012.3 - 0.0 - - - - - - -
02/09:00am 29.8 E 7 10 1012.0 - 0.0 - - - - - - -
02/08:30am 29.5 E 6 11 1011.9 - 0.0 - - - - - - -
02/08:00am 28.7 E 4 7 1011.6 - 0.0 - - - - - - -
02/07:30am 27.4 E 4 7 1011.1 - 0.0 - - - - - - -
02/07:00am 26.6 ESE 5 6 1010.9 - 0.0 - - - - - - -
02/06:30am 26.6 E 4 5 1010.5 - 0.0 - - - - - - -
02/06:00am 26.7 ESE 4 6 1010.3 - 0.0 - - - - - - -
02/05:30am 26.7 ESE 4 6 1010.2 - 0.0 - - - - - - -
02/05:00am 26.5 SE 5 7 1009.7 - 0.0 - - - - - - -
02/04:30am 26.5 ESE 4 5 1009.6 - 0.0 - - - - - - -
02/04:00am 26.6 ESE 3 4 1009.5 - 0.0 - - - - - - -
02/03:30am 26.5 ESE 4 5 1009.6 - 0.0 - - - - - - -
02/03:00am 26.6 SE 4 4 1009.8 - 0.0 - - - - - - -
02/02:30am 26.8 ESE 4 5 1010.1 - 0.0 - - - - - - -
02/02:00am 26.7 ESE 4 5 1010.2 - 0.0 - - - - - - -
02/01:30am 27.0 ESE 4 6 1010.7 - 0.0 - - - - - - -
02/01:00am 27.4 ESE 4 6 1011.1 - 0.0 - - - - - - -
02/12:30am 27.5 SE 5 7 1011.4 - 0.0 - - - - - - -
02/12:00am 27.7 ESE 5 7 1011.7 - 0.0 - - - - - - -
 
Date/Time
CST
Temp

°C
Wind Pressure Rain
since 9am
mm
Weather Cloud Vis
km
Sea
Height
m
Swell
Dir
 
Speed
knots
Gust
knots
hPa Trend Height
m
Period
s
Dir
01/11:30pm 27.8 SE 6 8 1011.8 - 0.0 - - - - - - -
01/11:00pm 27.9 SE 5 6 1012.0 - 0.0 - - - - - - -
01/10:30pm 28.0 ESE 4 7 1012.1 - 0.0 - - - - - - -
01/10:00pm 28.2 ESE 6 8 1011.9 - 0.0 - - - - - - -
01/09:30pm 28.3 ESE 7 10 1011.9 - 0.0 - - - - - - -
01/09:00pm 28.0 SE 6 9 1011.8 - 0.0 - - - - - - -
01/08:30pm 27.1 ESE 2 6 1011.4 - 0.0 - - - - - - -
01/08:00pm 27.1 CALM 0 0 1011.0 - 0.0 - - - - - - -
01/07:30pm 27.3 ENE 3 4 1010.6 - 0.0 - - - - - - -
01/07:00pm 27.3 ENE 4 6 1010.1 - 0.0 - - - - - - -
01/06:30pm 27.4 ENE 5 7 1010.0 - 0.0 - - - - - - -
01/06:00pm 28.0 NE 8 14 1009.8 - 0.0 - - - - - - -
01/05:30pm 28.5 ENE 4 6 1009.2 - 0.0 - - - - - - -
01/05:00pm 28.4 E 7 11 1009.0 - 0.0 - - - - - - -
01/04:30pm 29.4 E 7 12 1008.7 - 0.0 - - - - - - -
01/04:00pm 29.2 E 8 11 1008.8 - 0.0 - - - - - - -
01/03:30pm 29.2 E 6 9 1008.9 - 0.0 - - - - - - -
01/03:00pm 28.9 E 8 13 1009.1 - 0.0 - - - - - - -
01/02:30pm 28.7 E 8 13 1009.4 - 0.0 - - - - - - -
01/02:00pm 28.4 ESE 7 11 1009.7 - 0.0 - - - - - - -
01/01:30pm 28.3 ESE 7 11 1010.1 - 0.0 - - - - - - -
01/01:00pm 28.5 E 9 14 1010.5 - 0.0 - - - - - - -
01/12:30pm 28.1 ESE 10 16 1010.8 - 0.0 - - - - - - -
01/12:00pm 28.2 E 10 16 1010.9 - 0.0 - - - - - - -

Other Formats:

Comma delimited format used in spreadsheet applications
http://www.bom.gov.au/fwo/IDD60701/IDD60701.95146.axf

JavaScript Object Notation format (JSON) in row-major order
http://www.bom.gov.au/fwo/IDD60701/IDD60701.95146.json